world map with KEV marked

KEV - Airport

This information may not be accurate or current and is not valid for navigation or flight planning. No warranty of fitness for any purpose is made or implied.

flag of Finland

Donate via PayPal

Additional information is available on the NEW Great Circle Mapper

Location
City:  Jämsä, Keski-Suomi (Mellersta Finland;Central Finland), Finland
Near (Alt.):Kuorevesi
Name:Halli Airport
ICAO / IATA:EFHA / KEV

Details
Type:Airport (Aerodrome, Airfield)
Use:Military
Latitude:61°51'22"N (61.856050)
Longitude:24°47'12"E (24.786600)
Datum:WGS 1984
Elevation:479 ft (146 m)
Runways:1
Longest:8533 × 197 ft (2601 × 60 m)

Time
Timezone:UTC+2 (DST+5)
Local Time:

Weather
METAR:EFHA  190350Z AUTO 12005KT 9999 -SHSN OVC005 M02/M02 Q1027
TAF:EFHA  (expired)

Related Locations
Nearby:
Farthest:NZTB: 11107 mi / 17874 km
Terra Nova Bay [Mario Zucchelli Station], AQ

Find:

   beyond  
but within

Other Information
Maps:
Sources:

  


 


Great Circle Mapper   Great Circle Mapper
Great Circle Mapper FAQ   Great Circle Mapper FAQ
  Karl's Home Page
KLS²   KLS² Home
   GC on Facebook
Airlines of the World   Airlines of the World
Donate via PayPal


Copyright © 2004-2018, Karl L. Swartz. All rights reserved.
All trademarks mentioned herein belong to their respective owners.

Please see credits for attribution and copyright information.

Karl Swartz <karl@kls2.com>
  Powered by FreeBSD
Valid HTML 4.01!
Labeled with ICRA
hCard Microformat
Geo Microformat